Huvudsida
METAR-TAF:

METAR-TAF

Flygplatser :

Kelibia, Tunisien

latitud: 36-51N, longitud: 011-05E, höjd: 29 m

Aktuellt väderrapport

Denna rapport gjordes för 1 timme och 13 minuter sedan, klockan 13:00 UTC
Vind 10 kt från nordväst, varierande mellan väst och nord
Temperatur 29°C
Fuktighet 62%
Tryck 1014 hPa
Sikt 10 km eller mer
Inga moln under 1 500 m eller inga cumulonimbus

METAR: DTTL 241300Z 32010KT 260V010 CAVOK 29/21 Q1014

Tid: 15:13 (14:13 UTC)


TAF: saknas

Aktuella väderrapporter och prognoser från 4000 flygplatser (METAR- och TAF-rapporter).

De tillgängliga stationerna syns som gula och röda prickar på kartan.

För musen över prickarna för att se namnen på stationerna.

Klicka sedan för att få väderrapporter och prognoser.

För att ändra kartan: Klicka på de gröna knapparna med ett svart kors på för att zooma in; den gröna knappen med ett streck på för att zooma ut; eller på de gröna pilarna för angränsande kartor.


METAR-TAF: